sensor_id;sensor_type;location;lat;lon;timestamp;P1;durP1;ratioP1;P2;durP2;ratioP2
10711;SDS011;5407;51.234;6.804;2023-08-08T00:00:29;2.63;;;1.80;;
10711;SDS011;5407;51.234;6.804;2023-08-08T00:02:57;3.13;;;2.10;;
10711;SDS011;5407;51.234;6.804;2023-08-08T00:05:24;2.17;;;1.93;;
10711;SDS011;5407;51.234;6.804;2023-08-08T00:07:50;8.17;;;2.10;;
10711;SDS011;5407;51.234;6.804;2023-08-08T00:10:19;5.00;;;2.10;;
10711;SDS011;5407;51.234;6.804;2023-08-08T00:12:46;3.67;;;1.93;;
10711;SDS011;5407;51.234;6.804;2023-08-08T00:15:12;3.97;;;2.00;;
10711;SDS011;5407;51.234;6.804;2023-08-08T00:17:39;7.00;;;1.90;;
10711;SDS011;5407;51.234;6.804;2023-08-08T00:20:06;4.67;;;2.00;;
10711;SDS011;5407;51.234;6.804;2023-08-08T00:22:34;3.17;;;1.80;;
10711;SDS011;5407;51.234;6.804;2023-08-08T00:25:01;3.83;;;2.10;;
10711;SDS011;5407;51.234;6.804;2023-08-08T00:27:30;2.93;;;1.97;;
10711;SDS011;5407;51.234;6.804;2023-08-08T00:29:57;5.53;;;2.37;;
10711;SDS011;5407;51.234;6.804;2023-08-08T00:32:23;5.03;;;2.27;;
10711;SDS011;5407;51.234;6.804;2023-08-08T00:34:50;4.50;;;2.13;;
10711;SDS011;5407;51.234;6.804;2023-08-08T00:37:17;6.83;;;2.30;;
10711;SDS011;5407;51.234;6.804;2023-08-08T00:39:44;4.00;;;2.00;;
10711;SDS011;5407;51.234;6.804;2023-08-08T00:42:12;3.53;;;2.20;;
10711;SDS011;5407;51.234;6.804;2023-08-08T00:44:40;8.83;;;2.20;;
10711;SDS011;5407;51.234;6.804;2023-08-08T00:47:07;8.43;;;2.07;;
10711;SDS011;5407;51.234;6.804;2023-08-08T00:49:35;4.83;;;2.30;;
10711;SDS011;5407;51.234;6.804;2023-08-08T00:52:03;6.10;;;2.20;;
10711;SDS011;5407;51.234;6.804;2023-08-08T00:54:32;3.33;;;2.10;;
10711;SDS011;5407;51.234;6.804;2023-08-08T00:56:59;4.50;;;1.90;;
10711;SDS011;5407;51.234;6.804;2023-08-08T00:59:26;2.83;;;2.00;;
10711;SDS011;5407;51.234;6.804;2023-08-08T01:01:56;3.17;;;1.90;;
10711;SDS011;5407;51.234;6.804;2023-08-08T01:04:23;5.30;;;2.37;;
10711;SDS011;5407;51.234;6.804;2023-08-08T01:06:54;4.10;;;2.30;;
10711;SDS011;5407;51.234;6.804;2023-08-08T01:09:33;3.60;;;2.07;;
10711;SDS011;5407;51.234;6.804;2023-08-08T01:12:05;4.67;;;1.97;;
10711;SDS011;5407;51.234;6.804;2023-08-08T01:14:35;5.50;;;2.23;;
10711;SDS011;5407;51.234;6.804;2023-08-08T01:17:04;3.90;;;2.57;;
10711;SDS011;5407;51.234;6.804;2023-08-08T01:19:32;4.27;;;2.30;;
10711;SDS011;5407;51.234;6.804;2023-08-08T01:22:01;6.90;;;2.30;;
10711;SDS011;5407;51.234;6.804;2023-08-08T01:24:32;5.40;;;2.40;;
10711;SDS011;5407;51.234;6.804;2023-08-08T01:27:02;5.30;;;2.40;;
10711;SDS011;5407;51.234;6.804;2023-08-08T01:29:30;4.00;;;2.10;;
10711;SDS011;5407;51.234;6.804;2023-08-08T01:31:57;5.00;;;2.40;;
10711;SDS011;5407;51.234;6.804;2023-08-08T01:34:25;4.27;;;2.30;;
10711;SDS011;5407;51.234;6.804;2023-08-08T01:36:54;4.63;;;2.20;;
10711;SDS011;5407;51.234;6.804;2023-08-08T01:39:25;6.10;;;2.33;;
10711;SDS011;5407;51.234;6.804;2023-08-08T01:41:55;4.43;;;2.33;;
10711;SDS011;5407;51.234;6.804;2023-08-08T01:44:23;3.70;;;2.30;;
10711;SDS011;5407;51.234;6.804;2023-08-08T01:46:51;4.47;;;2.23;;
10711;SDS011;5407;51.234;6.804;2023-08-08T01:49:20;6.20;;;2.67;;
10711;SDS011;5407;51.234;6.804;2023-08-08T01:51:47;4.07;;;2.43;;
10711;SDS011;5407;51.234;6.804;2023-08-08T01:54:15;4.30;;;2.33;;
10711;SDS011;5407;51.234;6.804;2023-08-08T01:56:43;5.57;;;2.30;;
10711;SDS011;5407;51.234;6.804;2023-08-08T01:59:11;7.63;;;2.30;;
10711;SDS011;5407;51.234;6.804;2023-08-08T02:01:38;5.20;;;2.27;;
10711;SDS011;5407;51.234;6.804;2023-08-08T02:04:05;4.70;;;2.50;;
10711;SDS011;5407;51.234;6.804;2023-08-08T02:06:31;3.90;;;2.23;;
10711;SDS011;5407;51.234;6.804;2023-08-08T02:08:58;4.63;;;2.13;;
10711;SDS011;5407;51.234;6.804;2023-08-08T02:11:25;3.77;;;2.30;;
10711;SDS011;5407;51.234;6.804;2023-08-08T02:13:52;3.87;;;2.17;;
10711;SDS011;5407;51.234;6.804;2023-08-08T02:16:21;5.03;;;2.20;;
10711;SDS011;5407;51.234;6.804;2023-08-08T02:18:48;5.43;;;2.30;;
10711;SDS011;5407;51.234;6.804;2023-08-08T02:21:15;4.07;;;2.00;;
10711;SDS011;5407;51.234;6.804;2023-08-08T02:23:41;3.73;;;2.20;;
10711;SDS011;5407;51.234;6.804;2023-08-08T02:26:09;5.57;;;2.30;;
10711;SDS011;5407;51.234;6.804;2023-08-08T02:28:36;6.47;;;2.10;;
10711;SDS011;5407;51.234;6.804;2023-08-08T02:31:03;5.30;;;2.30;;
10711;SDS011;5407;51.234;6.804;2023-08-08T02:33:31;6.50;;;2.20;;
10711;SDS011;5407;51.234;6.804;2023-08-08T02:35:58;7.57;;;2.40;;
10711;SDS011;5407;51.234;6.804;2023-08-08T02:38:25;3.27;;;1.90;;
10711;SDS011;5407;51.234;6.804;2023-08-08T02:40:52;3.73;;;2.00;;
10711;SDS011;5407;51.234;6.804;2023-08-08T02:43:19;3.27;;;2.10;;
10711;SDS011;5407;51.234;6.804;2023-08-08T02:45:46;3.17;;;2.10;;
10711;SDS011;5407;51.234;6.804;2023-08-08T02:48:13;4.30;;;2.10;;
10711;SDS011;5407;51.234;6.804;2023-08-08T02:50:41;4.37;;;2.20;;
10711;SDS011;5407;51.234;6.804;2023-08-08T02:53:08;4.90;;;2.13;;
10711;SDS011;5407;51.234;6.804;2023-08-08T02:55:40;5.50;;;2.30;;
10711;SDS011;5407;51.234;6.804;2023-08-08T02:58:07;6.70;;;2.00;;
10711;SDS011;5407;51.234;6.804;2023-08-08T03:00:34;6.73;;;2.20;;
10711;SDS011;5407;51.234;6.804;2023-08-08T03:03:01;5.43;;;2.20;;
10711;SDS011;5407;51.234;6.804;2023-08-08T03:05:30;5.63;;;2.10;;
10711;SDS011;5407;51.234;6.804;2023-08-08T03:07:58;4.13;;;2.20;;
10711;SDS011;5407;51.234;6.804;2023-08-08T03:10:25;6.97;;;2.20;;
10711;SDS011;5407;51.234;6.804;2023-08-08T03:12:52;5.47;;;2.47;;
10711;SDS011;5407;51.234;6.804;2023-08-08T03:15:20;4.83;;;2.20;;
10711;SDS011;5407;51.234;6.804;2023-08-08T03:17:48;6.20;;;2.30;;
10711;SDS011;5407;51.234;6.804;2023-08-08T03:20:15;6.73;;;2.20;;
10711;SDS011;5407;51.234;6.804;2023-08-08T03:22:42;5.30;;;2.40;;
10711;SDS011;5407;51.234;6.804;2023-08-08T03:25:10;5.47;;;2.27;;
10711;SDS011;5407;51.234;6.804;2023-08-08T03:27:37;6.23;;;2.30;;
10711;SDS011;5407;51.234;6.804;2023-08-08T03:30:05;3.87;;;2.40;;
10711;SDS011;5407;51.234;6.804;2023-08-08T03:32:38;9.30;;;2.10;;
10711;SDS011;5407;51.234;6.804;2023-08-08T03:35:05;4.43;;;2.03;;
10711;SDS011;5407;51.234;6.804;2023-08-08T03:37:35;6.90;;;2.40;;
10711;SDS011;5407;51.234;6.804;2023-08-08T03:40:02;6.90;;;2.60;;
10711;SDS011;5407;51.234;6.804;2023-08-08T03:42:30;5.67;;;2.40;;
10711;SDS011;5407;51.234;6.804;2023-08-08T03:44:57;6.23;;;2.30;;
10711;SDS011;5407;51.234;6.804;2023-08-08T03:47:24;5.47;;;2.50;;
10711;SDS011;5407;51.234;6.804;2023-08-08T03:49:53;7.57;;;2.80;;
10711;SDS011;5407;51.234;6.804;2023-08-08T03:52:22;6.63;;;2.33;;
10711;SDS011;5407;51.234;6.804;2023-08-08T03:54:50;5.80;;;2.70;;
10711;SDS011;5407;51.234;6.804;2023-08-08T03:57:18;5.83;;;2.73;;
10711;SDS011;5407;51.234;6.804;2023-08-08T03:59:46;7.33;;;2.77;;
10711;SDS011;5407;51.234;6.804;2023-08-08T04:02:13;7.97;;;3.00;;
10711;SDS011;5407;51.234;6.804;2023-08-08T04:04:40;6.63;;;3.50;;
10711;SDS011;5407;51.234;6.804;2023-08-08T04:07:07;8.60;;;3.07;;
10711;SDS011;5407;51.234;6.804;2023-08-08T04:09:34;7.60;;;2.93;;
10711;SDS011;5407;51.234;6.804;2023-08-08T04:12:01;10.27;;;3.30;;
10711;SDS011;5407;51.234;6.804;2023-08-08T04:14:28;11.90;;;3.40;;
10711;SDS011;5407;51.234;6.804;2023-08-08T04:16:57;9.17;;;3.13;;
10711;SDS011;5407;51.234;6.804;2023-08-08T04:19:23;7.17;;;3.10;;
10711;SDS011;5407;51.234;6.804;2023-08-08T04:21:50;8.03;;;3.10;;
10711;SDS011;5407;51.234;6.804;2023-08-08T04:24:17;7.00;;;3.00;;
10711;SDS011;5407;51.234;6.804;2023-08-08T04:26:44;11.53;;;3.27;;
10711;SDS011;5407;51.234;6.804;2023-08-08T04:29:11;7.90;;;3.60;;
10711;SDS011;5407;51.234;6.804;2023-08-08T04:31:38;8.63;;;3.20;;
10711;SDS011;5407;51.234;6.804;2023-08-08T04:34:07;14.13;;;3.63;;
10711;SDS011;5407;51.234;6.804;2023-08-08T04:36:33;9.77;;;3.60;;
10711;SDS011;5407;51.234;6.804;2023-08-08T04:39:00;9.70;;;3.40;;
10711;SDS011;5407;51.234;6.804;2023-08-08T04:41:27;10.17;;;3.13;;
10711;SDS011;5407;51.234;6.804;2023-08-08T04:43:55;8.77;;;3.30;;
10711;SDS011;5407;51.234;6.804;2023-08-08T04:46:22;13.10;;;3.33;;
10711;SDS011;5407;51.234;6.804;2023-08-08T04:48:49;10.90;;;3.43;;
10711;SDS011;5407;51.234;6.804;2023-08-08T04:51:17;9.60;;;3.47;;
10711;SDS011;5407;51.234;6.804;2023-08-08T04:53:44;10.97;;;3.57;;
10711;SDS011;5407;51.234;6.804;2023-08-08T04:56:11;11.03;;;4.17;;
10711;SDS011;5407;51.234;6.804;2023-08-08T04:58:38;10.27;;;3.33;;
10711;SDS011;5407;51.234;6.804;2023-08-08T05:01:05;9.97;;;3.37;;
10711;SDS011;5407;51.234;6.804;2023-08-08T05:03:34;10.67;;;3.63;;
10711;SDS011;5407;51.234;6.804;2023-08-08T05:06:00;10.83;;;4.00;;
10711;SDS011;5407;51.234;6.804;2023-08-08T05:08:29;9.77;;;3.70;;
10711;SDS011;5407;51.234;6.804;2023-08-08T05:10:56;9.80;;;3.90;;
10711;SDS011;5407;51.234;6.804;2023-08-08T05:13:23;7.43;;;3.50;;
10711;SDS011;5407;51.234;6.804;2023-08-08T05:15:50;14.47;;;3.97;;
10711;SDS011;5407;51.234;6.804;2023-08-08T05:18:17;10.30;;;3.83;;
10711;SDS011;5407;51.234;6.804;2023-08-08T05:20:44;8.17;;;3.90;;
10711;SDS011;5407;51.234;6.804;2023-08-08T05:23:11;11.40;;;3.83;;
10711;SDS011;5407;51.234;6.804;2023-08-08T05:25:39;8.73;;;4.20;;
10711;SDS011;5407;51.234;6.804;2023-08-08T05:28:06;9.00;;;3.77;;
10711;SDS011;5407;51.234;6.804;2023-08-08T05:30:33;10.83;;;3.80;;
10711;SDS011;5407;51.234;6.804;2023-08-08T05:33:00;12.20;;;3.80;;
10711;SDS011;5407;51.234;6.804;2023-08-08T05:35:27;15.97;;;4.23;;
10711;SDS011;5407;51.234;6.804;2023-08-08T05:37:54;11.60;;;4.00;;
10711;SDS011;5407;51.234;6.804;2023-08-08T05:40:21;14.63;;;4.07;;
10711;SDS011;5407;51.234;6.804;2023-08-08T05:42:49;13.23;;;4.50;;
10711;SDS011;5407;51.234;6.804;2023-08-08T05:45:16;12.33;;;5.00;;
10711;SDS011;5407;51.234;6.804;2023-08-08T05:47:43;18.43;;;4.87;;
10711;SDS011;5407;51.234;6.804;2023-08-08T05:50:09;14.23;;;5.57;;
10711;SDS011;5407;51.234;6.804;2023-08-08T05:52:36;14.60;;;5.10;;
10711;SDS011;5407;51.234;6.804;2023-08-08T05:55:03;13.03;;;4.70;;
10711;SDS011;5407;51.234;6.804;2023-08-08T05:57:31;12.17;;;5.00;;
10711;SDS011;5407;51.234;6.804;2023-08-08T05:59:59;15.27;;;4.80;;
10711;SDS011;5407;51.234;6.804;2023-08-08T06:02:26;15.13;;;5.03;;
10711;SDS011;5407;51.234;6.804;2023-08-08T06:04:53;10.37;;;4.67;;
10711;SDS011;5407;51.234;6.804;2023-08-08T06:07:20;15.93;;;5.07;;
10711;SDS011;5407;51.234;6.804;2023-08-08T06:09:46;14.93;;;5.20;;
10711;SDS011;5407;51.234;6.804;2023-08-08T06:12:13;16.67;;;5.20;;
10711;SDS011;5407;51.234;6.804;2023-08-08T06:14:40;12.80;;;4.97;;
10711;SDS011;5407;51.234;6.804;2023-08-08T06:17:09;15.90;;;4.33;;
10711;SDS011;5407;51.234;6.804;2023-08-08T06:19:35;12.03;;;4.60;;
10711;SDS011;5407;51.234;6.804;2023-08-08T06:22:03;14.97;;;4.83;;
10711;SDS011;5407;51.234;6.804;2023-08-08T06:24:29;14.73;;;4.80;;
10711;SDS011;5407;51.234;6.804;2023-08-08T06:26:57;12.67;;;4.17;;
10711;SDS011;5407;51.234;6.804;2023-08-08T06:29:24;13.30;;;4.83;;
10711;SDS011;5407;51.234;6.804;2023-08-08T06:31:51;17.97;;;4.37;;
10711;SDS011;5407;51.234;6.804;2023-08-08T06:34:19;14.63;;;4.77;;
10711;SDS011;5407;51.234;6.804;2023-08-08T06:36:46;12.47;;;4.60;;
10711;SDS011;5407;51.234;6.804;2023-08-08T06:39:13;11.47;;;4.60;;
10711;SDS011;5407;51.234;6.804;2023-08-08T06:41:40;11.50;;;4.63;;
10711;SDS011;5407;51.234;6.804;2023-08-08T06:44:08;12.43;;;4.37;;
10711;SDS011;5407;51.234;6.804;2023-08-08T06:46:35;11.80;;;4.13;;
10711;SDS011;5407;51.234;6.804;2023-08-08T06:49:02;14.83;;;4.10;;
10711;SDS011;5407;51.234;6.804;2023-08-08T06:51:30;12.13;;;4.30;;
10711;SDS011;5407;51.234;6.804;2023-08-08T06:53:57;14.17;;;4.60;;
10711;SDS011;5407;51.234;6.804;2023-08-08T06:56:24;11.40;;;4.30;;
10711;SDS011;5407;51.234;6.804;2023-08-08T06:58:52;13.17;;;4.10;;
10711;SDS011;5407;51.234;6.804;2023-08-08T07:01:19;9.67;;;4.17;;
10711;SDS011;5407;51.234;6.804;2023-08-08T07:03:46;12.27;;;4.57;;
10711;SDS011;5407;51.234;6.804;2023-08-08T07:06:16;12.73;;;4.27;;
10711;SDS011;5407;51.234;6.804;2023-08-08T07:08:45;13.00;;;4.40;;
10711;SDS011;5407;51.234;6.804;2023-08-08T07:11:12;14.30;;;7.70;;
10711;SDS011;5407;51.234;6.804;2023-08-08T07:13:39;15.33;;;4.90;;
10711;SDS011;5407;51.234;6.804;2023-08-08T07:16:06;11.43;;;3.83;;
10711;SDS011;5407;51.234;6.804;2023-08-08T07:18:34;13.10;;;4.40;;
10711;SDS011;5407;51.234;6.804;2023-08-08T07:21:00;8.83;;;3.97;;
10711;SDS011;5407;51.234;6.804;2023-08-08T07:23:28;11.50;;;3.90;;
10711;SDS011;5407;51.234;6.804;2023-08-08T07:25:56;10.17;;;3.90;;
10711;SDS011;5407;51.234;6.804;2023-08-08T07:28:23;11.47;;;4.13;;
10711;SDS011;5407;51.234;6.804;2023-08-08T07:30:50;13.87;;;4.13;;
10711;SDS011;5407;51.234;6.804;2023-08-08T07:33:17;9.90;;;4.20;;
10711;SDS011;5407;51.234;6.804;2023-08-08T07:35:44;9.97;;;3.83;;
10711;SDS011;5407;51.234;6.804;2023-08-08T07:38:11;10.40;;;3.70;;
10711;SDS011;5407;51.234;6.804;2023-08-08T07:40:37;13.97;;;4.77;;
10711;SDS011;5407;51.234;6.804;2023-08-08T07:43:07;11.87;;;4.30;;
10711;SDS011;5407;51.234;6.804;2023-08-08T07:45:34;13.57;;;3.80;;
10711;SDS011;5407;51.234;6.804;2023-08-08T07:48:02;11.87;;;3.53;;
10711;SDS011;5407;51.234;6.804;2023-08-08T07:50:30;14.47;;;3.50;;
10711;SDS011;5407;51.234;6.804;2023-08-08T07:52:57;17.27;;;3.90;;
10711;SDS011;5407;51.234;6.804;2023-08-08T07:55:24;11.17;;;3.80;;
10711;SDS011;5407;51.234;6.804;2023-08-08T07:57:51;10.77;;;3.67;;
10711;SDS011;5407;51.234;6.804;2023-08-08T08:00:19;12.73;;;3.77;;
10711;SDS011;5407;51.234;6.804;2023-08-08T08:02:47;10.90;;;3.50;;
10711;SDS011;5407;51.234;6.804;2023-08-08T08:05:14;9.93;;;3.60;;
10711;SDS011;5407;51.234;6.804;2023-08-08T08:07:41;9.87;;;3.30;;
10711;SDS011;5407;51.234;6.804;2023-08-08T08:10:08;11.67;;;3.50;;
10711;SDS011;5407;51.234;6.804;2023-08-08T08:12:38;10.80;;;3.20;;
10711;SDS011;5407;51.234;6.804;2023-08-08T08:15:06;14.03;;;3.73;;
10711;SDS011;5407;51.234;6.804;2023-08-08T08:17:35;11.87;;;3.50;;
10711;SDS011;5407;51.234;6.804;2023-08-08T08:20:02;8.30;;;3.70;;
10711;SDS011;5407;51.234;6.804;2023-08-08T08:22:30;11.87;;;3.57;;
10711;SDS011;5407;51.234;6.804;2023-08-08T08:24:57;10.83;;;3.43;;
10711;SDS011;5407;51.234;6.804;2023-08-08T08:27:24;13.57;;;3.33;;
10711;SDS011;5407;51.234;6.804;2023-08-08T08:29:51;9.90;;;3.60;;
10711;SDS011;5407;51.234;6.804;2023-08-08T08:32:18;10.97;;;3.57;;
10711;SDS011;5407;51.234;6.804;2023-08-08T08:34:46;8.87;;;2.90;;
10711;SDS011;5407;51.234;6.804;2023-08-08T08:37:13;12.57;;;3.47;;
10711;SDS011;5407;51.234;6.804;2023-08-08T08:39:40;8.13;;;3.27;;
10711;SDS011;5407;51.234;6.804;2023-08-08T08:42:07;10.40;;;3.70;;
10711;SDS011;5407;51.234;6.804;2023-08-08T08:44:38;13.73;;;3.30;;
10711;SDS011;5407;51.234;6.804;2023-08-08T08:47:07;13.03;;;3.77;;
10711;SDS011;5407;51.234;6.804;2023-08-08T08:49:38;10.60;;;3.50;;
10711;SDS011;5407;51.234;6.804;2023-08-08T08:52:06;9.37;;;3.50;;
10711;SDS011;5407;51.234;6.804;2023-08-08T08:54:34;16.90;;;3.80;;
10711;SDS011;5407;51.234;6.804;2023-08-08T08:57:00;10.37;;;3.90;;
10711;SDS011;5407;51.234;6.804;2023-08-08T08:59:27;11.83;;;3.43;;
10711;SDS011;5407;51.234;6.804;2023-08-08T09:01:54;9.57;;;3.47;;
10711;SDS011;5407;51.234;6.804;2023-08-08T09:04:22;10.17;;;3.87;;
10711;SDS011;5407;51.234;6.804;2023-08-08T09:06:50;13.30;;;3.33;;
10711;SDS011;5407;51.234;6.804;2023-08-08T09:09:19;11.33;;;3.50;;
10711;SDS011;5407;51.234;6.804;2023-08-08T09:11:48;12.73;;;3.67;;
10711;SDS011;5407;51.234;6.804;2023-08-08T09:14:16;12.03;;;3.97;;
10711;SDS011;5407;51.234;6.804;2023-08-08T09:16:44;10.83;;;3.67;;
10711;SDS011;5407;51.234;6.804;2023-08-08T09:19:12;14.20;;;4.00;;
10711;SDS011;5407;51.234;6.804;2023-08-08T09:21:39;12.57;;;3.80;;
10711;SDS011;5407;51.234;6.804;2023-08-08T09:24:06;11.57;;;3.70;;
10711;SDS011;5407;51.234;6.804;2023-08-08T09:26:35;11.67;;;3.70;;
10711;SDS011;5407;51.234;6.804;2023-08-08T09:29:02;10.57;;;3.50;;
10711;SDS011;5407;51.234;6.804;2023-08-08T09:31:29;11.63;;;3.43;;
10711;SDS011;5407;51.234;6.804;2023-08-08T09:33:57;14.03;;;3.33;;
10711;SDS011;5407;51.234;6.804;2023-08-08T09:36:24;10.43;;;3.63;;
10711;SDS011;5407;51.234;6.804;2023-08-08T09:38:52;9.23;;;3.23;;
10711;SDS011;5407;51.234;6.804;2023-08-08T09:41:19;9.07;;;3.17;;
10711;SDS011;5407;51.234;6.804;2023-08-08T09:43:48;9.83;;;3.17;;
10711;SDS011;5407;51.234;6.804;2023-08-08T09:46:18;12.73;;;3.43;;
10711;SDS011;5407;51.234;6.804;2023-08-08T09:48:46;6.47;;;2.93;;
10711;SDS011;5407;51.234;6.804;2023-08-08T09:51:13;9.70;;;3.07;;
10711;SDS011;5407;51.234;6.804;2023-08-08T09:53:40;12.50;;;3.53;;
10711;SDS011;5407;51.234;6.804;2023-08-08T09:56:09;9.93;;;3.50;;
10711;SDS011;5407;51.234;6.804;2023-08-08T09:58:36;11.83;;;3.30;;
10711;SDS011;5407;51.234;6.804;2023-08-08T10:01:04;8.70;;;2.90;;
10711;SDS011;5407;51.234;6.804;2023-08-08T10:03:32;9.83;;;3.37;;
10711;SDS011;5407;51.234;6.804;2023-08-08T10:06:00;7.83;;;3.20;;
10711;SDS011;5407;51.234;6.804;2023-08-08T10:08:28;8.87;;;3.00;;
10711;SDS011;5407;51.234;6.804;2023-08-08T10:10:56;11.57;;;3.10;;
10711;SDS011;5407;51.234;6.804;2023-08-08T10:13:24;6.90;;;2.80;;
10711;SDS011;5407;51.234;6.804;2023-08-08T10:15:52;6.40;;;2.80;;
10711;SDS011;5407;51.234;6.804;2023-08-08T10:18:22;8.37;;;2.90;;
10711;SDS011;5407;51.234;6.804;2023-08-08T10:20:50;7.80;;;2.93;;
10711;SDS011;5407;51.234;6.804;2023-08-08T10:23:20;10.27;;;2.90;;
10711;SDS011;5407;51.234;6.804;2023-08-08T10:25:47;11.57;;;3.20;;
10711;SDS011;5407;51.234;6.804;2023-08-08T10:28:17;7.73;;;2.70;;
10711;SDS011;5407;51.234;6.804;2023-08-08T10:30:45;10.63;;;3.00;;
10711;SDS011;5407;51.234;6.804;2023-08-08T10:33:16;6.87;;;2.70;;
10711;SDS011;5407;51.234;6.804;2023-08-08T10:35:53;10.47;;;3.30;;
10711;SDS011;5407;51.234;6.804;2023-08-08T10:38:23;14.03;;;3.10;;
10711;SDS011;5407;51.234;6.804;2023-08-08T10:40:55;12.23;;;3.30;;
10711;SDS011;5407;51.234;6.804;2023-08-08T10:43:27;13.90;;;3.07;;
10711;SDS011;5407;51.234;6.804;2023-08-08T10:45:56;8.63;;;3.10;;
10711;SDS011;5407;51.234;6.804;2023-08-08T10:48:25;8.47;;;3.27;;
10711;SDS011;5407;51.234;6.804;2023-08-08T10:50:54;8.77;;;3.00;;
10711;SDS011;5407;51.234;6.804;2023-08-08T10:53:22;12.27;;;3.37;;
10711;SDS011;5407;51.234;6.804;2023-08-08T10:55:58;8.73;;;3.13;;
10711;SDS011;5407;51.234;6.804;2023-08-08T10:58:36;8.20;;;3.30;;
10711;SDS011;5407;51.234;6.804;2023-08-08T11:01:04;9.77;;;3.43;;
10711;SDS011;5407;51.234;6.804;2023-08-08T11:03:34;8.43;;;3.20;;
10711;SDS011;5407;51.234;6.804;2023-08-08T11:06:05;8.73;;;3.10;;
10711;SDS011;5407;51.234;6.804;2023-08-08T11:08:33;6.87;;;3.20;;
10711;SDS011;5407;51.234;6.804;2023-08-08T11:11:01;8.87;;;3.10;;
10711;SDS011;5407;51.234;6.804;2023-08-08T11:13:28;11.13;;;3.30;;
10711;SDS011;5407;51.234;6.804;2023-08-08T11:15:56;8.77;;;3.20;;
10711;SDS011;5407;51.234;6.804;2023-08-08T11:18:23;13.50;;;3.63;;
10711;SDS011;5407;51.234;6.804;2023-08-08T11:20:51;7.07;;;3.20;;
10711;SDS011;5407;51.234;6.804;2023-08-08T11:23:19;10.67;;;3.53;;
10711;SDS011;5407;51.234;6.804;2023-08-08T11:25:46;8.80;;;3.30;;
10711;SDS011;5407;51.234;6.804;2023-08-08T11:28:13;9.83;;;3.20;;
10711;SDS011;5407;51.234;6.804;2023-08-08T11:30:41;10.70;;;3.30;;
10711;SDS011;5407;51.234;6.804;2023-08-08T11:33:09;10.97;;;3.10;;
10711;SDS011;5407;51.234;6.804;2023-08-08T11:35:42;10.23;;;3.20;;
10711;SDS011;5407;51.234;6.804;2023-08-08T11:38:11;9.63;;;3.33;;
10711;SDS011;5407;51.234;6.804;2023-08-08T11:40:41;7.73;;;3.03;;
10711;SDS011;5407;51.234;6.804;2023-08-08T11:43:10;9.53;;;2.87;;
10711;SDS011;5407;51.234;6.804;2023-08-08T11:45:39;10.97;;;3.33;;
10711;SDS011;5407;51.234;6.804;2023-08-08T11:48:07;9.07;;;3.30;;
10711;SDS011;5407;51.234;6.804;2023-08-08T11:50:36;10.97;;;3.80;;
10711;SDS011;5407;51.234;6.804;2023-08-08T11:53:04;10.87;;;3.17;;
10711;SDS011;5407;51.234;6.804;2023-08-08T11:55:31;10.47;;;3.03;;
10711;SDS011;5407;51.234;6.804;2023-08-08T11:58:00;9.13;;;3.13;;
10711;SDS011;5407;51.234;6.804;2023-08-08T12:00:28;12.90;;;3.20;;
10711;SDS011;5407;51.234;6.804;2023-08-08T12:02:56;9.73;;;3.23;;
10711;SDS011;5407;51.234;6.804;2023-08-08T12:05:23;8.70;;;2.93;;
10711;SDS011;5407;51.234;6.804;2023-08-08T12:07:51;12.07;;;3.30;;
10711;SDS011;5407;51.234;6.804;2023-08-08T12:10:19;9.63;;;2.90;;
10711;SDS011;5407;51.234;6.804;2023-08-08T12:12:52;8.70;;;2.77;;
10711;SDS011;5407;51.234;6.804;2023-08-08T12:15:21;8.13;;;2.97;;
10711;SDS011;5407;51.234;6.804;2023-08-08T12:17:48;6.70;;;3.03;;
10711;SDS011;5407;51.234;6.804;2023-08-08T12:20:15;8.60;;;2.83;;
10711;SDS011;5407;51.234;6.804;2023-08-08T12:22:42;7.43;;;3.23;;
10711;SDS011;5407;51.234;6.804;2023-08-08T12:25:10;6.57;;;2.67;;
10711;SDS011;5407;51.234;6.804;2023-08-08T12:27:38;9.07;;;2.63;;
10711;SDS011;5407;51.234;6.804;2023-08-08T12:30:06;5.97;;;2.30;;
10711;SDS011;5407;51.234;6.804;2023-08-08T12:32:35;7.57;;;2.50;;
10711;SDS011;5407;51.234;6.804;2023-08-08T12:35:02;4.80;;;2.13;;
10711;SDS011;5407;51.234;6.804;2023-08-08T12:37:29;6.33;;;2.10;;
10711;SDS011;5407;51.234;6.804;2023-08-08T12:39:56;4.97;;;2.27;;
10711;SDS011;5407;51.234;6.804;2023-08-08T12:42:23;4.60;;;2.27;;
10711;SDS011;5407;51.234;6.804;2023-08-08T12:44:50;7.25;;;2.60;;
10711;SDS011;5407;51.234;6.804;2023-08-08T12:47:17;5.75;;;2.20;;
10711;SDS011;5407;51.234;6.804;2023-08-08T12:49:47;6.55;;;2.47;;
10711;SDS011;5407;51.234;6.804;2023-08-08T12:52:14;7.05;;;2.55;;
10711;SDS011;5407;51.234;6.804;2023-08-08T12:54:41;6.35;;;2.70;;
10711;SDS011;5407;51.234;6.804;2023-08-08T12:57:08;6.28;;;3.17;;
10711;SDS011;5407;51.234;6.804;2023-08-08T12:59:35;8.13;;;2.78;;
10711;SDS011;5407;51.234;6.804;2023-08-08T13:02:02;6.22;;;2.60;;
10711;SDS011;5407;51.234;6.804;2023-08-08T13:04:29;7.95;;;2.60;;
10711;SDS011;5407;51.234;6.804;2023-08-08T13:06:57;8.63;;;2.85;;
10711;SDS011;5407;51.234;6.804;2023-08-08T13:09:24;7.47;;;2.80;;
10711;SDS011;5407;51.234;6.804;2023-08-08T13:11:51;7.55;;;2.90;;
10711;SDS011;5407;51.234;6.804;2023-08-08T13:14:18;9.77;;;2.67;;
10711;SDS011;5407;51.234;6.804;2023-08-08T13:16:45;8.73;;;2.92;;
10711;SDS011;5407;51.234;6.804;2023-08-08T13:19:11;7.97;;;2.93;;
10711;SDS011;5407;51.234;6.804;2023-08-08T13:21:40;7.05;;;2.63;;
10711;SDS011;5407;51.234;6.804;2023-08-08T13:24:09;9.07;;;2.73;;
10711;SDS011;5407;51.234;6.804;2023-08-08T13:26:38;7.53;;;2.67;;
10711;SDS011;5407;51.234;6.804;2023-08-08T13:29:05;8.80;;;2.73;;
10711;SDS011;5407;51.234;6.804;2023-08-08T13:31:33;7.77;;;2.80;;
10711;SDS011;5407;51.234;6.804;2023-08-08T13:34:00;9.40;;;3.03;;
10711;SDS011;5407;51.234;6.804;2023-08-08T13:36:27;8.45;;;2.92;;
10711;SDS011;5407;51.234;6.804;2023-08-08T13:38:54;7.88;;;2.70;;
10711;SDS011;5407;51.234;6.804;2023-08-08T13:41:22;5.93;;;2.28;;
10711;SDS011;5407;51.234;6.804;2023-08-08T13:43:49;7.38;;;2.80;;
10711;SDS011;5407;51.234;6.804;2023-08-08T13:46:16;7.20;;;2.60;;
10711;SDS011;5407;51.234;6.804;2023-08-08T13:48:43;5.47;;;2.57;;
10711;SDS011;5407;51.234;6.804;2023-08-08T13:51:10;5.50;;;2.33;;
10711;SDS011;5407;51.234;6.804;2023-08-08T13:53:37;5.70;;;2.40;;
10711;SDS011;5407;51.234;6.804;2023-08-08T13:56:04;7.77;;;2.43;;
10711;SDS011;5407;51.234;6.804;2023-08-08T13:58:32;6.90;;;2.40;;
10711;SDS011;5407;51.234;6.804;2023-08-08T14:00:59;10.03;;;2.60;;
10711;SDS011;5407;51.234;6.804;2023-08-08T14:03:26;7.17;;;2.60;;
10711;SDS011;5407;51.234;6.804;2023-08-08T14:05:53;6.00;;;2.67;;
10711;SDS011;5407;51.234;6.804;2023-08-08T14:08:20;7.30;;;2.53;;
10711;SDS011;5407;51.234;6.804;2023-08-08T14:10:47;9.20;;;2.63;;
10711;SDS011;5407;51.234;6.804;2023-08-08T14:13:14;6.40;;;2.60;;
10711;SDS011;5407;51.234;6.804;2023-08-08T14:15:43;5.60;;;2.47;;
10711;SDS011;5407;51.234;6.804;2023-08-08T14:18:10;4.30;;;2.27;;
10711;SDS011;5407;51.234;6.804;2023-08-08T14:20:37;7.20;;;2.67;;
10711;SDS011;5407;51.234;6.804;2023-08-08T14:23:04;5.20;;;2.20;;
10711;SDS011;5407;51.234;6.804;2023-08-08T14:25:31;5.77;;;2.33;;
10711;SDS011;5407;51.234;6.804;2023-08-08T14:27:58;8.73;;;2.50;;
10711;SDS011;5407;51.234;6.804;2023-08-08T14:30:26;8.10;;;2.70;;
10711;SDS011;5407;51.234;6.804;2023-08-08T14:32:55;7.27;;;2.40;;
10711;SDS011;5407;51.234;6.804;2023-08-08T14:35:22;7.30;;;2.27;;
10711;SDS011;5407;51.234;6.804;2023-08-08T14:37:49;4.97;;;2.97;;
10711;SDS011;5407;51.234;6.804;2023-08-08T14:40:16;9.33;;;5.03;;
10711;SDS011;5407;51.234;6.804;2023-08-08T14:42:43;8.40;;;4.57;;
10711;SDS011;5407;51.234;6.804;2023-08-08T14:45:11;5.10;;;2.47;;
10711;SDS011;5407;51.234;6.804;2023-08-08T14:47:38;8.77;;;2.57;;
10711;SDS011;5407;51.234;6.804;2023-08-08T14:50:07;3.77;;;2.27;;
10711;SDS011;5407;51.234;6.804;2023-08-08T14:52:34;7.23;;;2.50;;
10711;SDS011;5407;51.234;6.804;2023-08-08T14:55:01;4.57;;;2.38;;
10711;SDS011;5407;51.234;6.804;2023-08-08T14:57:29;3.87;;;2.30;;